Time;durP1;ratioP1;P1;durP2;ratioP2;P2;SDS_P1;SDS_P2;PMS_P1;PMS_P2;Temp;Humidity;BMP_temperature;BMP_pressure;BME280_temperature;BME280_humidity;BME280_pressure;Samples;Min_cycle;Max_cycle;Signal;HPM_P1;HPM_P2
2021/07/14 00:02:23;;;;;;;;;;;;;;;;;;5112456;28;19912;-62
2021/07/14 00:04:49;;;;;;;;;;;;;;;;;;5115294;28;19920;-62
2021/07/14 00:07:14;;;;;;;;;;;;;;;;;;5124785;28;20002;-61
2021/07/14 00:09:40;;;;;;;;;;;;;;;;;;5113965;28;19978;-62
2021/07/14 00:12:08;;;;;;;;;;;;;;;;;;5113654;28;19945;-61
2021/07/14 00:22:26;;;;;;;;;;;;;;;;;;5112157;28;19918;-61
2021/07/14 00:24:54;;;;;;;;;;;;;;;;;;5110153;28;19920;-61
2021/07/14 00:27:20;;;;;;;;;;;;;;;;;;5097843;28;19912;-62
2021/07/14 00:29:52;;;;;;;;;;;;;;;;;;5113027;28;19919;-62
2021/07/14 00:32:18;;;;;;;;;;;;;;;;;;5113246;28;20429;-62
2021/07/14 00:34:44;;;;;;;;;;;;;;;;;;5113967;28;19916;-62
2021/07/14 00:37:10;;;;;;;;;;;;;;;;;;5123373;28;19912;-62
2021/07/14 00:39:36;;;;;;;;;;;;;;;;;;5125453;28;19919;-62
2021/07/14 00:42:02;;;;;;;;;;;;;;;;;;5124832;28;20362;-62
2021/07/14 00:44:27;;;;;;;;;;;;;;;;;;5118959;28;20006;-62
2021/07/14 00:46:53;;;;;;;;;;;;;;;;;;5112955;28;19957;-61
2021/07/14 00:49:19;;;;;;;;;;;;;;;;;;5108938;28;19908;-62
2021/07/14 00:51:45;;;;;;;;;;;;;;;;;;5102542;28;19919;-62
2021/07/14 00:54:11;;;;;;;;;;;;;;;;;;5122997;28;19938;-62
2021/07/14 00:56:38;;;;;;;;;;;;;;;;;;5118775;27;20002;-62
2021/07/14 00:59:04;;;;;;;;;;;;;;;;;;5123470;27;19916;-62
2021/07/14 01:01:31;;;;;;;;;;;;;;;;;;5115844;27;19907;-62
2021/07/14 01:03:57;;;;;;;;;;;;;;;;;;5112067;28;19912;-62
2021/07/14 01:06:23;;;;;;;;;;;;;;;;;;5117040;27;19926;-62
2021/07/14 01:08:49;;;;;;;;;;;;;;;;;;5117547;27;19931;-62
2021/07/14 01:11:14;;;;;;;;;;;;;;;;;;5123282;27;20015;-62
2021/07/14 01:13:42;;;;;;;;;;;;;;;;;;5120182;27;19991;-62
2021/07/14 01:16:08;;;;;;;;;;;;;;;;;;5114728;27;19927;-59
2021/07/14 01:18:34;;;;;;;;;;;;;;;;;;5116905;27;20294;-62
2021/07/14 01:21:00;;;;;;;;;;;;;;;;;;5116865;27;19962;-62
2021/07/14 01:23:26;;;;;;;;;;;;;;;;;;5116043;27;19915;-62
2021/07/14 01:25:52;;;;;;;;;;;;;;;;;;5115929;27;20382;-62
2021/07/14 01:28:18;;;;;;;;;;;;;;;;;;5115568;27;19955;-62
2021/07/14 01:30:44;;;;;;;;;;;;;;;;;;5115911;27;19908;-62
2021/07/14 01:33:09;;;;;;;;;;;;;;;;;;5116541;27;19919;-62
2021/07/14 01:35:35;;;;;;;;;;;;;;;;;;5124302;27;19962;-62
2021/07/14 01:38:01;;;;;;;;;;;;;;;;;;5123075;27;19911;-62
2021/07/14 01:40:27;;;;;;;;;;;;;;;;;;5116583;27;19911;-62
2021/07/14 01:42:53;;;;;;;;;;;;;;;;;;5114059;27;20375;-62
2021/07/14 01:45:19;;;;;;;;;;;;;;;;;;5118387;27;19915;-62
2021/07/14 01:47:45;;;;;;;;;;;;;;;;;;5107257;27;20009;-62
2021/07/14 01:50:11;;;;;;;;;;;;;;;;;;5123346;27;19919;-62
2021/07/14 01:52:36;;;;;;;;;;;;;;;;;;5115797;27;19917;-62
2021/07/14 01:55:02;;;;;;;;;;;;;;;;;;5111014;27;20338;-61
2021/07/14 01:57:28;;;;;;;;;;;;;;;;;;5132551;27;19940;-62
2021/07/14 01:59:54;;;;;;;;;;;;;;;;;;5117504;27;19911;-62
2021/07/14 02:02:22;;;;;;;;;;;;;;;;;;5115271;27;20354;-62
2021/07/14 02:04:48;;;;;;;;;;;;;;;;;;5117011;27;20178;-62
2021/07/14 02:07:14;;;;;;;;;;;;;;;;;;5116227;27;19912;-62
2021/07/14 02:09:40;;;;;;;;;;;;;;;;;;5115807;27;20412;-62
2021/07/14 02:12:06;;;;;;;;;;;;;;;;;;5116528;27;20288;-61
2021/07/14 02:14:32;;;;;;;;;;;;;;;;;;5114997;27;19920;-62
2021/07/14 02:16:58;;;;;;;;;;;;;;;;;;5114355;27;19962;-61
2021/07/14 02:19:24;;;;;;;;;;;;;;;;;;5114309;27;19915;-62
2021/07/14 02:21:50;;;;;;;;;;;;;;;;;;5113000;27;20341;-62
2021/07/14 02:24:16;;;;;;;;;;;;;;;;;;5116785;27;19908;-62
2021/07/14 02:26:43;;;;;;;;;;;;;;;;;;5122655;27;20371;-62
2021/07/14 02:29:08;;;;;;;;;;;;;;;;;;5120147;27;19911;-62
2021/07/14 02:31:35;;;;;;;;;;;;;;;;;;5114645;27;19919;-62
2021/07/14 02:34:00;;;;;;;;;;;;;;;;;;5109847;27;19951;-62
2021/07/14 02:36:26;;;;;;;;;;;;;;;;;;5123989;27;19966;-61
2021/07/14 02:38:52;;;;;;;;;;;;;;;;;;5114344;27;20324;-61
2021/07/14 02:41:21;;;;;;;;;;;;;;;;;;5114650;27;19912;-62
2021/07/14 02:43:47;;;;;;;;;;;;;;;;;;5115157;27;20002;-61
2021/07/14 02:46:15;;;;;;;;;;;;;;;;;;5114893;27;19916;-62
2021/07/14 02:48:41;;;;;;;;;;;;;;;;;;5128851;27;19915;-62
2021/07/14 02:51:07;;;;;;;;;;;;;;;;;;5097414;28;19908;-62
2021/07/14 02:53:33;;;;;;;;;;;;;;;;;;5114642;27;19915;-62
2021/07/14 02:55:59;;;;;;;;;;;;;;;;;;5116634;27;19972;-62
2021/07/14 02:58:25;;;;;;;;;;;;;;;;;;5125842;27;19911;-61
2021/07/14 03:00:51;;;;;;;;;;;;;;;;;;5111470;27;19943;-61
2021/07/14 03:03:17;;;;;;;;;;;;;;;;;;5117172;27;20412;-61
2021/07/14 03:05:43;;;;;;;;;;;;;;;;;;5102774;27;19967;-62
2021/07/14 03:08:14;;;;;;;;;;;;;;;;;;5114590;27;19911;-61
2021/07/14 03:10:40;;;;;;;;;;;;;;;;;;5113416;27;19919;-61
2021/07/14 03:13:05;;;;;;;;;;;;;;;;;;5110789;27;19990;-62
2021/07/14 03:15:31;;;;;;;;;;;;;;;;;;5115833;27;19916;-61
2021/07/14 03:17:59;;;;;;;;;;;;;;;;;;5113953;27;21262;-61
2021/07/14 03:20:25;;;;;;;;;;;;;;;;;;5113923;27;19912;-61
2021/07/14 03:22:51;;;;;;;;;;;;;;;;;;5113935;27;19915;-61
2021/07/14 03:25:17;;;;;;;;;;;;;;;;;;5111758;27;20396;-61
2021/07/14 03:27:43;;;;;;;;;;;;;;;;;;5099798;28;19928;-61
2021/07/14 03:30:08;;;;;;;;;;;;;;;;;;5124763;27;19914;-61
2021/07/14 03:32:34;;;;;;;;;;;;;;;;;;5116546;27;20390;-61
2021/07/14 03:35:00;;;;;;;;;;;;;;;;;;5115266;27;19923;-61
2021/07/14 03:37:26;;;;;;;;;;;;;;;;;;5114689;27;20010;-61
2021/07/14 03:39:52;;;;;;;;;;;;;;;;;;5110990;28;19981;-61
2021/07/14 03:42:18;;;;;;;;;;;;;;;;;;5116112;27;19915;-61
2021/07/14 03:44:44;;;;;;;;;;;;;;;;;;5120880;27;20259;-61
2021/07/14 03:47:10;;;;;;;;;;;;;;;;;;5117820;27;19911;-71
2021/07/14 03:49:36;;;;;;;;;;;;;;;;;;5115871;27;19915;-71
2021/07/14 03:52:01;;;;;;;;;;;;;;;;;;5119093;27;19912;-71
2021/07/14 03:54:28;;;;;;;;;;;;;;;;;;5126506;27;19915;-71
2021/07/14 03:56:54;;;;;;;;;;;;;;;;;;5120685;27;19950;-71
2021/07/14 03:59:20;;;;;;;;;;;;;;;;;;5122010;27;19915;-71
2021/07/14 04:01:46;;;;;;;;;;;;;;;;;;5121667;28;19915;-70
2021/07/14 04:04:11;;;;;;;;;;;;;;;;;;5118821;28;20363;-71
2021/07/14 04:06:37;;;;;;;;;;;;;;;;;;5119562;28;19915;-71
2021/07/14 04:09:03;;;;;;;;;;;;;;;;;;5127469;28;19912;-70
2021/07/14 04:11:30;;;;;;;;;;;;;;;;;;5116928;28;19919;-65
2021/07/14 04:13:55;;;;;;;;;;;;;;;;;;5113405;28;20010;-66
2021/07/14 04:16:21;;;;;;;;;;;;;;;;;;5110655;28;20007;-66
2021/07/14 04:18:47;;;;;;;;;;;;;;;;;;5111757;28;19960;-66
2021/07/14 04:21:13;;;;;;;;;;;;;;;;;;5114208;28;19912;-66
2021/07/14 04:23:39;;;;;;;;;;;;;;;;;;5113566;28;20006;-66
2021/07/14 04:26:05;;;;;;;;;;;;;;;;;;5112832;28;20278;-66
2021/07/14 04:28:33;;;;;;;;;;;;;;;;;;5112431;28;19911;-65
2021/07/14 04:30:58;;;;;;;;;;;;;;;;;;5111037;28;19919;-65
2021/07/14 04:33:24;;;;;;;;;;;;;;;;;;5120625;27;19908;-67
2021/07/14 04:35:50;;;;;;;;;;;;;;;;;;5125428;27;20466;-67
2021/07/14 04:38:16;;;;;;;;;;;;;;;;;;5119183;27;19911;-67
2021/07/14 04:40:42;;;;;;;;;;;;;;;;;;5116641;27;20290;-67
2021/07/14 04:43:10;;;;;;;;;;;;;;;;;;5113341;27;19927;-65
2021/07/14 04:45:36;;;;;;;;;;;;;;;;;;5117790;27;19908;-65
2021/07/14 04:48:02;;;;;;;;;;;;;;;;;;5116795;27;20327;-65
2021/07/14 04:50:28;;;;;;;;;;;;;;;;;;5119714;27;19912;-67
2021/07/14 04:52:54;;;;;;;;;;;;;;;;;;5125151;27;20356;-65
2021/07/14 04:55:20;;;;;;;;;;;;;;;;;;5114828;27;19959;-65
2021/07/14 04:57:46;;;;;;;;;;;;;;;;;;5116534;27;20349;-65
2021/07/14 05:00:13;;;;;;;;;;;;;;;;;;5118367;27;19960;-65
2021/07/14 05:02:39;;;;;;;;;;;;;;;;;;5117575;27;19946;-67
2021/07/14 05:05:05;;;;;;;;;;;;;;;;;;5120994;27;19915;-67
2021/07/14 05:07:31;;;;;;;;;;;;;;;;;;5121458;27;19912;-68
2021/07/14 05:09:57;;;;;;;;;;;;;;;;;;5112129;27;19919;-65
2021/07/14 05:12:22;;;;;;;;;;;;;;;;;;5119696;27;19926;-65
2021/07/14 05:14:48;;;;;;;;;;;;;;;;;;5116348;27;19930;-64
2021/07/14 05:17:14;;;;;;;;;;;;;;;;;;5118014;27;19935;-64
2021/07/14 05:19:40;;;;;;;;;;;;;;;;;;5116519;27;20010;-67
2021/07/14 05:22:06;;;;;;;;;;;;;;;;;;5114429;27;20411;-66
2021/07/14 05:24:32;;;;;;;;;;;;;;;;;;5117963;27;19996;-67
2021/07/14 05:26:58;;;;;;;;;;;;;;;;;;5117546;27;19998;-67
2021/07/14 05:29:24;;;;;;;;;;;;;;;;;;5117866;27;19947;-65
2021/07/14 05:31:49;;;;;;;;;;;;;;;;;;5115817;27;20022;-67
2021/07/14 05:34:15;;;;;;;;;;;;;;;;;;5113883;27;19918;-66
2021/07/14 05:36:41;;;;;;;;;;;;;;;;;;5125906;27;19957;-68
2021/07/14 05:39:07;;;;;;;;;;;;;;;;;;5116375;27;19908;-65
2021/07/14 05:41:33;;;;;;;;;;;;;;;;;;5115873;27;19916;-68
2021/07/14 05:43:59;;;;;;;;;;;;;;;;;;5115718;27;19946;-67
2021/07/14 05:46:25;;;;;;;;;;;;;;;;;;5112344;28;19912;-67
2021/07/14 05:48:51;;;;;;;;;;;;;;;;;;5129155;27;19927;-67
2021/07/14 05:51:17;;;;;;;;;;;;;;;;;;5117677;27;19908;-67
2021/07/14 05:53:43;;;;;;;;;;;;;;;;;;5097049;28;20418;-67
2021/07/14 05:56:08;;;;;;;;;;;;;;;;;;5114982;27;19926;-68
2021/07/14 05:58:34;;;;;;;;;;;;;;;;;;5115375;27;19960;-66
2021/07/14 06:01:00;;;;;;;;;;;;;;;;;;5116259;27;20282;-66
2021/07/14 06:03:26;;;;;;;;;;;;;;;;;;5126551;27;19919;-67
2021/07/14 06:05:52;;;;;;;;;;;;;;;;;;5126285;27;20370;-65
2021/07/14 06:08:18;;;;;;;;;;;;;;;;;;5118832;27;19911;-67
2021/07/14 06:10:44;;;;;;;;;;;;;;;;;;5121162;27;19994;-65
2021/07/14 06:13:10;;;;;;;;;;;;;;;;;;5123249;27;19965;-67
2021/07/14 06:15:36;;;;;;;;;;;;;;;;;;5124737;27;19915;-69
2021/07/14 06:18:02;;;;;;;;;;;;;;;;;;5122285;27;19918;-69
2021/07/14 06:20:27;;;;;;;;;;;;;;;;;;5120293;27;19998;-70
2021/07/14 06:22:53;;;;;;;;;;;;;;;;;;5115201;27;19968;-68
2021/07/14 06:25:19;;;;;;;;;;;;;;;;;;5112804;27;20291;-67
2021/07/14 06:27:45;;;;;;;;;;;;;;;;;;5114693;27;20007;-69
2021/07/14 06:30:11;;;;;;;;;;;;;;;;;;5116437;27;19915;-70
2021/07/14 06:32:37;;;;;;;;;;;;;;;;;;5113854;27;19912;-68
2021/07/14 06:35:03;;;;;;;;;;;;;;;;;;5114820;27;19923;-68
2021/07/14 06:37:29;;;;;;;;;;;;;;;;;;5113775;27;19956;-70
2021/07/14 06:39:55;;;;;;;;;;;;;;;;;;5111180;27;19912;-70
2021/07/14 06:42:20;;;;;;;;;;;;;;;;;;5117662;27;19973;-68
2021/07/14 06:44:46;;;;;;;;;;;;;;;;;;5113548;27;19931;-67
2021/07/14 06:47:13;;;;;;;;;;;;;;;;;;5110601;27;19912;-68
2021/07/14 06:49:38;;;;;;;;;;;;;;;;;;5110116;27;19991;-67
2021/07/14 06:52:04;;;;;;;;;;;;;;;;;;5109175;27;20373;-67
2021/07/14 06:54:30;;;;;;;;;;;;;;;;;;5114382;27;19927;-67
2021/07/14 06:56:56;;;;;;;;;;;;;;;;;;5114713;27;20389;-67
2021/07/14 06:59:22;;;;;;;;;;;;;;;;;;5106379;27;20012;-68
2021/07/14 07:01:48;;;;;;;;;;;;;;;;;;5103401;27;20256;-64
2021/07/14 07:04:14;;;;;;;;;;;;;;;;;;5109737;27;20371;-65
2021/07/14 07:06:40;;;;;;;;;;;;;;;;;;5124622;27;19908;-63
2021/07/14 07:09:06;;;;;;;;;;;;;;;;;;5114076;27;19961;-63
2021/07/14 07:11:34;;;;;;;;;;;;;;;;;;5111324;27;19930;-64
2021/07/14 07:14:00;;;;;;;;;;;;;;;;;;5101241;27;20294;-65
2021/07/14 07:16:26;;;;;;;;;;;;;;;;;;5111046;27;19927;-65
2021/07/14 07:18:52;;;;;;;;;;;;;;;;;;5110117;27;19912;-65
2021/07/14 07:21:18;;;;;;;;;;;;;;;;;;5114171;27;19912;-66
2021/07/14 07:23:45;;;;;;;;;;;;;;;;;;5113933;27;19955;-65
2021/07/14 07:26:11;;;;;;;;;;;;;;;;;;5113330;27;20343;-64
2021/07/14 07:28:41;;;;;;;;;;;;;;;;;;5113105;27;20193;-64
2021/07/14 07:31:07;;;;;;;;;;;;;;;;;;5109496;27;20014;-65
2021/07/14 07:33:33;;;;;;;;;;;;;;;;;;5115024;27;19908;-65
2021/07/14 07:35:58;;;;;;;;;;;;;;;;;;5127697;27;19938;-64
2021/07/14 07:38:25;;;;;;;;;;;;;;;;;;5109789;27;19941;-64
2021/07/14 07:40:53;;;;;;;;;;;;;;;;;;5113491;27;20347;-64
2021/07/14 07:43:20;;;;;;;;;;;;;;;;;;5111430;28;19923;-63
2021/07/14 07:45:46;;;;;;;;;;;;;;;;;;5112295;27;19915;-64
2021/07/14 07:48:12;;;;;;;;;;;;;;;;;;5125836;27;19912;-64
2021/07/14 07:50:38;;;;;;;;;;;;;;;;;;5113036;27;19977;-64
2021/07/14 07:53:04;;;;;;;;;;;;;;;;;;5113032;27;19951;-65
2021/07/14 07:55:29;;;;;;;;;;;;;;;;;;5113209;27;19920;-65
2021/07/14 07:57:55;;;;;;;;;;;;;;;;;;5109560;28;20436;-65
2021/07/14 08:00:21;;;;;;;;;;;;;;;;;;5116336;27;19947;-65
2021/07/14 08:02:47;;;;;;;;;;;;;;;;;;5112748;27;19915;-65
2021/07/14 08:05:13;;;;;;;;;;;;;;;;;;5117700;27;19980;-65
2021/07/14 08:07:39;;;;;;;;;;;;;;;;;;5101390;28;19915;-65
2021/07/14 08:10:05;;;;;;;;;;;;;;;;;;5109453;28;19927;-65
2021/07/14 08:12:31;;;;;;;;;;;;;;;;;;5115345;28;19926;-65
2021/07/14 08:14:57;;;;;;;;;;;;;;;;;;5112583;28;19942;-65
2021/07/14 08:17:22;;;;;;;;;;;;;;;;;;5113815;28;19951;-65
2021/07/14 08:19:50;;;;;;;;;;;;;;;;;;5112744;28;20359;-69
2021/07/14 08:22:16;;;;;;;;;;;;;;;;;;5111290;28;19955;-69
2021/07/14 08:24:42;;;;;;;;;;;;;;;;;;5112301;28;19950;-68
2021/07/14 08:27:08;;;;;;;;;;;;;;;;;;5114118;28;19912;-69
2021/07/14 08:29:34;;;;;;;;;;;;;;;;;;5113242;28;19912;-69
2021/07/14 08:32:00;;;;;;;;;;;;;;;;;;5112500;28;20423;-68
2021/07/14 08:34:28;;;;;;;;;;;;;;;;;;5111333;28;19964;-69
2021/07/14 08:36:53;;;;;;;;;;;;;;;;;;5121645;28;20279;-69
2021/07/14 08:39:19;;;;;;;;;;;;;;;;;;5115520;28;19908;-69
2021/07/14 08:41:45;;;;;;;;;;;;;;;;;;5112800;28;19964;-68
2021/07/14 08:44:11;;;;;;;;;;;;;;;;;;5112790;28;19919;-68
2021/07/14 08:46:37;;;;;;;;;;;;;;;;;;5091776;28;19956;-69
2021/07/14 08:49:05;;;;;;;;;;;;;;;;;;5110171;28;19923;-69
2021/07/14 08:51:31;;;;;;;;;;;;;;;;;;5113209;28;20003;-68
2021/07/14 08:53:57;;;;;;;;;;;;;;;;;;5111302;28;19991;-68
2021/07/14 08:56:23;;;;;;;;;;;;;;;;;;5110972;28;19976;-69
2021/07/14 08:58:48;;;;;;;;;;;;;;;;;;5111099;28;19912;-69
2021/07/14 09:01:14;;;;;;;;;;;;;;;;;;5108043;28;20379;-69
2021/07/14 09:03:40;;;;;;;;;;;;;;;;;;5110460;28;19919;-69
2021/07/14 09:06:08;;;;;;;;;;;;;;;;;;5126401;28;19912;-68
2021/07/14 09:08:33;;;;;;;;;;;;;;;;;;5114566;28;19912;-71
2021/07/14 09:11:00;;;;;;;;;;;;;;;;;;5112112;28;19953;-69
2021/07/14 09:13:25;;;;;;;;;;;;;;;;;;5111327;28;19911;-69
2021/07/14 09:15:51;;;;;;;;;;;;;;;;;;5110833;28;19974;-68
2021/07/14 09:18:17;;;;;;;;;;;;;;;;;;5123217;27;20011;-67
2021/07/14 09:20:43;;;;;;;;;;;;;;;;;;5122136;27;20387;-68
2021/07/14 09:23:09;;;;;;;;;;;;;;;;;;5122591;27;19912;-67
2021/07/14 09:25:35;;;;;;;;;;;;;;;;;;5115846;27;19918;-67
2021/07/14 09:28:03;;;;;;;;;;;;;;;;;;5111419;28;19919;-68
2021/07/14 09:30:29;;;;;;;;;;;;;;;;;;5119330;27;20287;-66
2021/07/14 09:32:55;;;;;;;;;;;;;;;;;;5117335;27;19919;-68
2021/07/14 09:35:21;;;;;;;;;;;;;;;;;;5117110;27;20002;-67
2021/07/14 09:37:47;;;;;;;;;;;;;;;;;;5115820;27;20386;-68
2021/07/14 09:40:13;;;;;;;;;;;;;;;;;;5112568;27;19912;-69
2021/07/14 09:42:38;;;;;;;;;;;;;;;;;;5116240;27;19915;-68
2021/07/14 09:45:04;;;;;;;;;;;;;;;;;;5116630;27;19963;-68
2021/07/14 09:47:31;;;;;;;;;;;;;;;;;;5123373;27;19911;-68
2021/07/14 09:49:56;;;;;;;;;;;;;;;;;;5125661;27;19998;-68
2021/07/14 09:52:22;;;;;;;;;;;;;;;;;;5114071;27;19999;-67
2021/07/14 09:54:48;;;;;;;;;;;;;;;;;;5113628;27;20286;-73
2021/07/14 09:57:14;;;;;;;;;;;;;;;;;;5122351;27;19986;-69
2021/07/14 09:59:40;;;;;;;;;;;;;;;;;;5115020;27;19915;-68
2021/07/14 10:02:08;;;;;;;;;;;;;;;;;;5115080;27;20305;-68
2021/07/14 10:04:37;;;;;;;;;;;;;;;;;;5114901;27;20314;-68
2021/07/14 10:07:03;;;;;;;;;;;;;;;;;;5127388;27;19918;-68
2021/07/14 10:09:29;;;;;;;;;;;;;;;;;;5118450;27;19907;-68
2021/07/14 10:11:54;;;;;;;;;;;;;;;;;;5096855;28;20387;-69
2021/07/14 10:14:20;;;;;;;;;;;;;;;;;;5116253;27;19955;-69
2021/07/14 10:16:46;;;;;;;;;;;;;;;;;;5114488;27;19915;-66
2021/07/14 10:19:12;;;;;;;;;;;;;;;;;;5110455;27;19965;-66
2021/07/14 10:21:38;;;;;;;;;;;;;;;;;;5116023;27;19915;-67
2021/07/14 10:24:04;;;;;;;;;;;;;;;;;;5115961;27;19954;-66
2021/07/14 10:26:30;;;;;;;;;;;;;;;;;;5115079;27;19918;-66
2021/07/14 10:28:56;;;;;;;;;;;;;;;;;;5119847;27;19919;-67
2021/07/14 10:31:22;;;;;;;;;;;;;;;;;;5121830;27;20019;-66
2021/07/14 10:33:48;;;;;;;;;;;;;;;;;;5124052;27;19996;-66
2021/07/14 10:36:14;;;;;;;;;;;;;;;;;;5123714;27;20395;-67
2021/07/14 10:38:40;;;;;;;;;;;;;;;;;;5122157;27;19912;-66
2021/07/14 10:41:07;;;;;;;;;;;;;;;;;;5124727;27;20005;-66
2021/07/14 10:43:33;;;;;;;;;;;;;;;;;;5117594;27;19923;-66
2021/07/14 10:45:59;;;;;;;;;;;;;;;;;;5118635;27;19912;-67
2021/07/14 10:48:24;;;;;;;;;;;;;;;;;;5125527;27;20382;-67
2021/07/14 10:50:50;;;;;;;;;;;;;;;;;;5123021;27;19999;-66
2021/07/14 10:53:19;;;;;;;;;;;;;;;;;;5122665;27;19968;-67
2021/07/14 10:55:45;;;;;;;;;;;;;;;;;;5123634;27;19919;-66
2021/07/14 10:58:11;;;;;;;;;;;;;;;;;;5102946;27;19916;-66
2021/07/14 11:00:37;;;;;;;;;;;;;;;;;;5121711;27;19911;-66
2021/07/14 11:03:03;;;;;;;;;;;;;;;;;;5126079;27;20001;-66
2021/07/14 11:05:29;;;;;;;;;;;;;;;;;;5122581;27;19915;-65
2021/07/14 11:07:54;;;;;;;;;;;;;;;;;;5113140;27;19911;-65
2021/07/14 11:10:20;;;;;;;;;;;;;;;;;;5124981;27;19963;-65
2021/07/14 11:12:46;;;;;;;;;;;;;;;;;;5113199;27;19988;-66
2021/07/14 11:15:12;;;;;;;;;;;;;;;;;;5115078;27;19916;-65
2021/07/14 11:17:38;;;;;;;;;;;;;;;;;;5113907;27;19936;-65
2021/07/14 11:20:04;;;;;;;;;;;;;;;;;;5112532;27;19912;-65
2021/07/14 11:22:30;;;;;;;;;;;;;;;;;;5113535;27;19922;-64
2021/07/14 11:24:56;;;;;;;;;;;;;;;;;;5109713;28;19916;-65
2021/07/14 11:27:22;;;;;;;;;;;;;;;;;;5116261;27;19914;-65
2021/07/14 11:29:48;;;;;;;;;;;;;;;;;;5113466;27;19994;-66
2021/07/14 11:32:14;;;;;;;;;;;;;;;;;;5113715;27;19916;-65
2021/07/14 11:34:39;;;;;;;;;;;;;;;;;;5113845;27;19919;-66
2021/07/14 11:37:05;;;;;;;;;;;;;;;;;;5117427;27;19942;-65
2021/07/14 11:39:31;;;;;;;;;;;;;;;;;;5126255;27;19918;-64
2021/07/14 11:41:57;;;;;;;;;;;;;;;;;;5112723;27;20256;-64
2021/07/14 11:44:23;;;;;;;;;;;;;;;;;;5113412;27;19985;-68
2021/07/14 11:46:49;;;;;;;;;;;;;;;;;;5113322;27;19962;-67
2021/07/14 11:49:15;;;;;;;;;;;;;;;;;;5110589;27;19916;-67
2021/07/14 11:51:41;;;;;;;;;;;;;;;;;;5113086;28;20282;-65
2021/07/14 11:54:06;;;;;;;;;;;;;;;;;;5114478;27;19908;-65
2021/07/14 11:56:33;;;;;;;;;;;;;;;;;;5113081;27;19920;-65
2021/07/14 11:58:59;;;;;;;;;;;;;;;;;;5113140;27;20268;-65
2021/07/14 12:01:25;;;;;;;;;;;;;;;;;;5111537;28;19923;-65
2021/07/14 12:03:51;;;;;;;;;;;;;;;;;;5111064;28;19919;-65
2021/07/14 12:06:17;;;;;;;;;;;;;;;;;;5114243;28;19908;-65
2021/07/14 12:08:42;;;;;;;;;;;;;;;;;;5119078;28;20285;-66
2021/07/14 12:11:08;;;;;;;;;;;;;;;;;;5119373;28;19927;-65
2021/07/14 12:13:34;;;;;;;;;;;;;;;;;;5112935;28;20434;-65
2021/07/14 12:16:00;;;;;;;;;;;;;;;;;;5107675;28;19920;-68
2021/07/14 12:18:26;;;;;;;;;;;;;;;;;;5096394;28;20014;-65
2021/07/14 12:20:52;;;;;;;;;;;;;;;;;;5110427;28;19912;-65
2021/07/14 12:23:18;;;;;;;;;;;;;;;;;;5111092;28;19981;-66
2021/07/14 12:25:44;;;;;;;;;;;;;;;;;;5110752;28;19926;-65
2021/07/14 12:28:10;;;;;;;;;;;;;;;;;;5115601;28;19912;-65
2021/07/14 12:30:36;;;;;;;;;;;;;;;;;;5112934;28;20375;-66
2021/07/14 12:33:02;;;;;;;;;;;;;;;;;;5112980;28;20347;-66
2021/07/14 12:35:28;;;;;;;;;;;;;;;;;;5112163;28;20152;-65
2021/07/14 12:37:54;;;;;;;;;;;;;;;;;;5114170;28;20059;-66
2021/07/14 12:40:20;;;;;;;;;;;;;;;;;;5122245;28;19916;-68
2021/07/14 12:42:46;;;;;;;;;;;;;;;;;;5111972;28;19991;-68
2021/07/14 12:45:12;;;;;;;;;;;;;;;;;;5114223;28;19908;-66
2021/07/14 12:47:38;;;;;;;;;;;;;;;;;;5112626;28;19912;-68
2021/07/14 12:50:03;;;;;;;;;;;;;;;;;;5113173;28;19923;-68
2021/07/14 12:52:29;;;;;;;;;;;;;;;;;;5112819;27;20340;-68
2021/07/14 12:54:55;;;;;;;;;;;;;;;;;;5112560;28;20007;-67
2021/07/14 12:57:22;;;;;;;;;;;;;;;;;;5119694;27;19907;-68
2021/07/14 12:59:48;;;;;;;;;;;;;;;;;;5121248;27;19947;-68
2021/07/14 13:02:14;;;;;;;;;;;;;;;;;;5118177;27;19916;-68
2021/07/14 13:04:40;;;;;;;;;;;;;;;;;;5115575;27;19916;-68
2021/07/14 13:07:06;;;;;;;;;;;;;;;;;;5112888;27;20425;-68
2021/07/14 13:09:32;;;;;;;;;;;;;;;;;;5134434;27;19914;-68
2021/07/14 13:11:58;;;;;;;;;;;;;;;;;;5121902;27;19919;-68
2021/07/14 13:14:23;;;;;;;;;;;;;;;;;;5117514;27;19955;-68
2021/07/14 13:16:49;;;;;;;;;;;;;;;;;;5115676;27;19916;-68
2021/07/14 13:19:15;;;;;;;;;;;;;;;;;;5120338;27;20290;-68
2021/07/14 13:21:42;;;;;;;;;;;;;;;;;;5117169;27;19915;-68
2021/07/14 13:24:08;;;;;;;;;;;;;;;;;;5116918;27;19908;-68
2021/07/14 13:26:34;;;;;;;;;;;;;;;;;;5115760;27;19916;-68
2021/07/14 13:29:00;;;;;;;;;;;;;;;;;;5117215;27;19972;-68
2021/07/14 13:31:26;;;;;;;;;;;;;;;;;;5114964;27;19922;-68
2021/07/14 13:33:51;;;;;;;;;;;;;;;;;;5113996;27;20320;-68
2021/07/14 13:36:17;;;;;;;;;;;;;;;;;;5117309;27;20019;-68
2021/07/14 13:38:43;;;;;;;;;;;;;;;;;;5115648;27;19916;-68
2021/07/14 13:41:10;;;;;;;;;;;;;;;;;;5115833;27;19920;-68
2021/07/14 13:43:36;;;;;;;;;;;;;;;;;;5115667;27;20319;-68
2021/07/14 13:46:02;;;;;;;;;;;;;;;;;;5110665;27;19916;-69
2021/07/14 13:48:28;;;;;;;;;;;;;;;;;;5101256;28;20025;-69
2021/07/14 13:50:54;;;;;;;;;;;;;;;;;;5115381;27;19923;-68
2021/07/14 13:53:20;;;;;;;;;;;;;;;;;;5115708;27;20439;-68
2021/07/14 13:55:46;;;;;;;;;;;;;;;;;;5115118;27;19919;-67
2021/07/14 13:58:12;;;;;;;;;;;;;;;;;;5112372;27;19951;-68
2021/07/14 14:00:38;;;;;;;;;;;;;;;;;;5116419;27;19960;-67
2021/07/14 14:03:04;;;;;;;;;;;;;;;;;;5116503;27;20275;-68
2021/07/14 14:05:31;;;;;;;;;;;;;;;;;;5114518;27;20329;-67
2021/07/14 14:07:57;;;;;;;;;;;;;;;;;;5115520;27;20692;-67
2021/07/14 14:10:23;;;;;;;;;;;;;;;;;;5114040;27;19912;-66
2021/07/14 14:12:49;;;;;;;;;;;;;;;;;;5114262;27;20320;-68
2021/07/14 14:15:15;;;;;;;;;;;;;;;;;;5116602;27;20359;-68
2021/07/14 14:17:40;;;;;;;;;;;;;;;;;;5115051;27;20002;-67
2021/07/14 14:20:06;;;;;;;;;;;;;;;;;;5097006;28;20044;-67
2021/07/14 14:22:32;;;;;;;;;;;;;;;;;;5114727;27;20306;-67
2021/07/14 14:25:07;;;;;;;;;;;;;;;;;;5110600;28;19984;-67
2021/07/14 14:27:45;;;;;;;;;;;;;;;;;;5126680;27;19913;-67
2021/07/14 14:30:11;;;;;;;;;;;;;;;;;;5116177;27;19959;-67
2021/07/14 14:32:37;;;;;;;;;;;;;;;;;;5115031;27;19951;-67
2021/07/14 14:35:03;;;;;;;;;;;;;;;;;;5113560;27;19920;-67
2021/07/14 14:37:29;;;;;;;;;;;;;;;;;;5113990;27;19915;-67
2021/07/14 14:39:55;;;;;;;;;;;;;;;;;;5111601;28;19951;-67
2021/07/14 14:42:21;;;;;;;;;;;;;;;;;;5117582;27;19931;-67
2021/07/14 14:44:46;;;;;;;;;;;;;;;;;;5112467;27;19912;-67
2021/07/14 14:47:12;;;;;;;;;;;;;;;;;;5114486;27;20375;-67
2021/07/14 14:49:38;;;;;;;;;;;;;;;;;;5115127;27;19964;-67
2021/07/14 14:52:04;;;;;;;;;;;;;;;;;;5110501;27;19923;-68
2021/07/14 14:54:30;;;;;;;;;;;;;;;;;;5117585;27;19908;-67
2021/07/14 14:56:56;;;;;;;;;;;;;;;;;;5116187;27;19938;-67
2021/07/14 14:59:24;;;;;;;;;;;;;;;;;;5095576;28;19986;-68
2021/07/14 15:01:50;;;;;;;;;;;;;;;;;;5114340;27;19911;-68
2021/07/14 15:04:19;;;;;;;;;;;;;;;;;;5111979;27;19920;-67
2021/07/14 15:06:45;;;;;;;;;;;;;;;;;;5112497;27;20373;-69
2021/07/14 15:09:11;;;;;;;;;;;;;;;;;;5115171;27;19908;-66
2021/07/14 15:11:37;;;;;;;;;;;;;;;;;;5119822;27;19920;-69
2021/07/14 15:14:03;;;;;;;;;;;;;;;;;;5121676;27;20082;-66
2021/07/14 15:16:29;;;;;;;;;;;;;;;;;;5111988;27;19958;-66
2021/07/14 15:18:57;;;;;;;;;;;;;;;;;;5110555;27;19996;-66
2021/07/14 15:21:25;;;;;;;;;;;;;;;;;;5116715;27;19908;-68
2021/07/14 15:23:53;;;;;;;;;;;;;;;;;;5114721;27;19912;-68
2021/07/14 15:29:04;;;;;;;;;;;;;;;;;;5114971;27;19961;-68
2021/07/14 15:31:29;;;;;;;;;;;;;;;;;;5113986;27;19942;-68
2021/07/14 15:33:57;;;;;;;;;;;;;;;;;;5110416;27;19919;-68
2021/07/14 15:36:23;;;;;;;;;;;;;;;;;;5115967;27;20030;-68
2021/07/14 15:38:49;;;;;;;;;;;;;;;;;;5120262;27;20014;-68
2021/07/14 15:41:15;;;;;;;;;;;;;;;;;;5113564;27;19912;-68
2021/07/14 15:43:41;;;;;;;;;;;;;;;;;;5113424;27;19911;-69
2021/07/14 15:46:07;;;;;;;;;;;;;;;;;;5111392;27;20014;-68
2021/07/14 15:48:33;;;;;;;;;;;;;;;;;;5115617;27;19958;-68
2021/07/14 15:50:59;;;;;;;;;;;;;;;;;;5105603;28;19916;-70
2021/07/14 15:53:25;;;;;;;;;;;;;;;;;;5112135;27;19915;-70
2021/07/14 15:55:50;;;;;;;;;;;;;;;;;;5112824;27;20022;-70
2021/07/14 15:58:16;;;;;;;;;;;;;;;;;;5092018;27;19955;-70
2021/07/14 16:00:42;;;;;;;;;;;;;;;;;;5113877;27;19908;-70
2021/07/14 16:03:08;;;;;;;;;;;;;;;;;;5114545;27;20038;-67
2021/07/14 16:05:34;;;;;;;;;;;;;;;;;;5112993;28;19968;-67
2021/07/14 16:08:00;;;;;;;;;;;;;;;;;;5113300;28;19958;-68
2021/07/14 16:10:28;;;;;;;;;;;;;;;;;;5112151;28;19912;-68
2021/07/14 16:12:54;;;;;;;;;;;;;;;;;;5110725;28;19982;-68
2021/07/14 16:15:20;;;;;;;;;;;;;;;;;;5115937;28;19916;-67
2021/07/14 16:17:46;;;;;;;;;;;;;;;;;;5111478;28;19924;-68
2021/07/14 16:20:12;;;;;;;;;;;;;;;;;;5108213;28;20371;-68
2021/07/14 16:22:38;;;;;;;;;;;;;;;;;;5113027;28;19918;-68
2021/07/14 16:25:04;;;;;;;;;;;;;;;;;;5110264;28;19916;-68
2021/07/14 16:27:29;;;;;;;;;;;;;;;;;;5118494;28;19912;-69
2021/07/14 16:29:55;;;;;;;;;;;;;;;;;;5115289;27;20285;-69
2021/07/14 16:32:21;;;;;;;;;;;;;;;;;;5115908;27;19959;-63
2021/07/14 16:34:48;;;;;;;;;;;;;;;;;;5115248;27;19923;-63
2021/07/14 16:37:14;;;;;;;;;;;;;;;;;;5113014;27;19922;-64
2021/07/14 16:39:39;;;;;;;;;;;;;;;;;;5116055;27;20010;-61
2021/07/14 16:42:05;;;;;;;;;;;;;;;;;;5116510;27;20320;-61
2021/07/14 16:44:31;;;;;;;;;;;;;;;;;;5115759;27;19911;-61
2021/07/14 16:46:57;;;;;;;;;;;;;;;;;;5115671;27;19918;-67
2021/07/14 16:49:24;;;;;;;;;;;;;;;;;;5114275;27;19964;-66